SBSPSBRP

Guest
Details From SBSP - Sao Paulo Congonhas
To SBRP - LEITE LOPES
Flight Number -
Tags generated
Created
Modified
Stats Distance 162 nm / 300 km
Max Altitude 12,000 ft / 3,658 m
Waypoints 3
Social Downloads 0
Likes 0
Share VATSIM

Download

Looking for another format? Having issues loading an existing format? Contact us
Advertisement - Login to hide

Notes

Basic altitude profile: - Ascent Rate: 2500ft/min - Ascent Speed: 250kts - Cruise Altitude: 35000ft - Cruise Speed: 450kts - Descent Rate: 1500ft/min - Descent Speed: 250kts Options: - Use NATs: yes - Use PACOTS: yes - Use low airways: yes - Use high airways: yes

Route

SBSP PSN SBRP

ID Type Via Altitude Latitude Longitude Leg Dist Tot Dist Heading (true) Name
O SBSP APT - 0 ft / 0 m -23.62669˚ -46.65538˚ - 0 nm - Sao Paulo Congonhas
PSN VOR - 12,000 ft / 3,658 m -21.98450˚ -47.34417˚ 105 nm 105 nm 339° / 339° PIRASSUNUNGA VOR-DME
O SBRP APT - 0 ft / 0 m -21.13417˚ -47.77419˚ 56 nm 162 nm 335° / 335° LEITE LOPES

Altitude Profile

Advertisement - Login to hide

Weather


0- 5 10 15 20 25 30 35+ Temperature / ° C

Clouds and Precipitation
Forecast for 2017-12-15 18:00 UTC. Updated an hour ago

Ground ~20,000 ft ~40,000 ft Winds

SBSP

Details ICAO SBSP (CGH)
Name Sao Paulo Congonhas
Region Brazil
Timezone America/Sao_Paulo (UTC-2.0)
Stats Elevation 2,631 ft / 802 m (AMSL)
Location -23.626693° -46.655377°
Runways 2
Magnetic Variation 21.295° W

METAR

SBSP 151400Z 32009KT 9999 SCT045 28/17 Q1018

Decode

TAF

TAF SBSP 150808Z 1512/1612 07005KT CAVOK TX30/1517Z TN20/1608Z BECMG 1513/1515 25005KT BECMG 1516/1518 18010KT SCT045 FEW050TCU BECMG 1521/1523 13005KT CAVOK BECMG 1601/1603 05005KT PROB30 1608/1611 18003KT 3000 BR BKN011 RMK PGF

Decode

Departure Runways

ID Width Length Bearing (true) Bearing (mag) Surface Threshold Offset Overrun Length
17L 147 ft / 45 m 4,726 ft / 1,441 m 147.28° 168.58° Asphalt 0 ft / 0 m 220 ft / 67 m
17R 147 ft / 45 m 6,406 ft / 1,953 m 147.39° 168.69° Asphalt 413 ft / 126 m 0 ft / 0 m
35L 147 ft / 45 m 6,406 ft / 1,953 m 327.38° 348.68° Asphalt 200 ft / 61 m 0 ft / 0 m
35R 147 ft / 45 m 4,726 ft / 1,441 m 327.28° 348.58° Asphalt 0 ft / 0 m 0 ft / 0 m

SBRP

Details ICAO SBRP (RAO)
Name LEITE LOPES
Region Brazil
Timezone America/Sao_Paulo (UTC-2.0)
Stats Elevation 1,802 ft / 549 m (AMSL)
Location -21.134166° -47.774189°
Runways 1
Magnetic Variation 21.204° W

METAR

SBRP 151400Z 09007KT 9999 SCT045 30/18 Q1015

Decode

TAF

TAF SBRP 150808Z 1512/1612 08008KT CAVOK TX31/1518Z TN21/1609Z BECMG 1514/1516 SCT040 BECMG 1519/1521 11005KT CAVOK RMK PGF

Decode

Destination Runways

ID Width Length Bearing (true) Bearing (mag) Surface Threshold Offset Overrun Length
18 115 ft / 35 m 6,918 ft / 2,109 m 163.40° 184.60° Asphalt 657 ft / 200 m 0 ft / 0 m
36 115 ft / 35 m 6,918 ft / 2,109 m 343.40° 4.60° Asphalt 328 ft / 100 m 0 ft / 0 m

Popular Alternatives